Time;durP1;ratioP1;P1;durP2;ratioP2;P2;SDS_P1;SDS_P2;PMS_P1;PMS_P2;Temp;Humidity;BMP_temperature;BMP_pressure;BME280_temperature;BME280_humidity;BME280_pressure;Samples;Min_cycle;Max_cycle;Signal;HPM_P1;HPM_P2
2022/11/02 00:01:30;;;;;;;32.00;14.30;;;;;;;10.47;88.89;100676.95;51788;1312;1016178;-80
2022/11/02 00:04:02;;;;;;;31.50;14.40;;;;;;;10.45;88.88;100674.20;51736;1310;1016077;-79
2022/11/02 00:06:43;;;;;;;29.30;13.50;;;;;;;10.43;88.77;100676.68;51763;1309;1016345;-79
2022/11/02 00:09:17;;;;;;;30.10;13.70;;;;;;;10.39;88.66;100680.60;51721;1309;1017023;-79
2022/11/02 00:11:50;;;;;;;33.30;15.10;;;;;;;10.37;89.07;100682.46;51792;1309;1015872;-79
2022/11/02 00:14:23;;;;;;;28.00;12.60;;;;;;;10.35;88.91;100686.47;51766;1301;1016259;-80
2022/11/02 00:16:56;;;;;;;29.90;13.50;;;;;;;10.33;88.80;100687.19;51697;1309;1016014;-79
2022/11/02 00:19:29;;;;;;;31.60;14.10;;;;;;;10.31;88.66;100682.25;51704;1291;1018714;-79
2022/11/02 00:22:02;;;;;;;30.60;14.20;;;;;;;10.30;88.61;100681.91;51692;1303;1016481;-80
2022/11/02 00:24:36;;;;;;;30.20;13.50;;;;;;;10.27;88.32;100684.02;51759;1296;1016120;-79
2022/11/02 00:27:11;;;;;;;32.00;14.20;;;;;;;10.25;88.40;100687.68;51777;1294;1016478;-81
2022/11/02 00:29:44;;;;;;;31.40;13.50;;;;;;;10.24;88.20;100687.03;51677;1297;1015756;-79
2022/11/02 00:32:16;;;;;;;26.30;11.50;;;;;;;10.21;88.16;100686.25;51619;1312;1017184;-79
2022/11/02 00:34:48;;;;;;;28.90;13.00;;;;;;;10.19;88.01;100693.08;51636;1312;1016106;-78
2022/11/02 00:37:20;;;;;;;31.20;13.30;;;;;;;10.14;87.84;100696.09;51795;1312;1016078;-79
2022/11/02 00:39:54;;;;;;;29.30;13.20;;;;;;;10.07;87.80;100697.39;51732;1312;1016248;-79
2022/11/02 00:42:30;;;;;;;25.40;12.00;;;;;;;10.01;87.88;100694.63;51727;1295;1016247;-79
2022/11/02 00:45:02;;;;;;;25.90;12.10;;;;;;;9.96;87.75;100694.90;51773;1292;1015997;-79
2022/11/02 00:47:40;;;;;;;31.00;12.90;;;;;;;9.93;87.70;100695.70;51726;1293;1016480;-79
2022/11/02 00:50:15;;;;;;;29.10;12.80;;;;;;;9.89;87.78;100702.33;51937;1308;1016294;-80
2022/11/02 00:52:47;;;;;;;29.50;12.50;;;;;;;9.83;87.79;100702.23;51841;1312;1016012;-80
2022/11/02 00:55:21;;;;;;;29.40;13.10;;;;;;;9.80;87.71;100703.80;51897;1309;1016315;-80
2022/11/02 00:57:54;;;;;;;28.00;12.60;;;;;;;9.75;87.99;100707.02;51994;1293;1015542;-80
2022/11/02 01:00:27;;;;;;;32.00;13.00;;;;;;;9.72;87.93;100710.86;51950;1288;1015582;-80
2022/11/02 01:03:02;;;;;;;29.30;12.40;;;;;;;9.68;87.94;100713.14;51918;1292;1019043;-80
2022/11/02 01:05:37;;;;;;;28.90;12.80;;;;;;;9.65;87.95;100710.10;51970;1300;1016204;-79
2022/11/02 01:08:09;;;;;;;26.90;12.40;;;;;;;9.61;87.91;100712.08;51643;1312;1016006;-79
2022/11/02 01:10:46;;;;;;;26.10;12.20;;;;;;;9.58;87.99;100712.95;51689;1294;1016025;-78
2022/11/02 01:13:19;;;;;;;26.80;11.20;;;;;;;9.56;87.89;100713.59;51654;1304;1016535;-78
2022/11/02 01:15:51;;;;;;;25.80;11.70;;;;;;;9.53;87.98;100712.58;51753;1293;1016759;-80
2022/11/02 01:18:25;;;;;;;32.80;12.90;;;;;;;9.51;88.02;100713.72;51678;1312;1015940;-78
2022/11/02 01:21:00;;;;;;;27.90;12.60;;;;;;;9.49;88.08;100714.02;51628;1305;1018150;-78
2022/11/02 01:23:37;;;;;;;31.50;12.40;;;;;;;9.48;88.13;100714.20;51712;1309;1016483;-79
2022/11/02 01:26:10;;;;;;;27.90;12.70;;;;;;;9.48;88.25;100709.94;51697;1293;1016331;-78
2022/11/02 01:28:48;;;;;;;30.00;12.80;;;;;;;9.47;88.36;100709.34;51767;1307;1016182;-79
2022/11/02 01:31:21;;;;;;;26.30;12.20;;;;;;;9.43;88.47;100709.80;51686;1293;1016694;-79
2022/11/02 01:33:56;;;;;;;29.60;12.40;;;;;;;9.40;88.43;100709.05;51957;1293;1016199;-79
2022/11/02 01:36:29;;;;;;;33.20;13.40;;;;;;;9.36;88.35;100705.63;51736;1294;1016292;-79
2022/11/02 01:39:02;;;;;;;30.10;13.00;;;;;;;9.34;88.29;100706.60;51637;1293;1015798;-80
2022/11/02 01:41:34;;;;;;;30.50;13.60;;;;;;;9.30;89.09;100708.27;51813;1291;1016808;-79
2022/11/02 01:44:33;;;;;;;29.60;12.60;;;;;;;9.29;89.22;100711.11;51745;1294;1015844;-80
2022/11/02 01:47:09;;;;;;;30.40;12.80;;;;;;;9.28;89.64;100714.52;52003;1312;1016050;-80
2022/11/02 01:49:44;;;;;;;31.10;14.40;;;;;;;9.25;89.54;100717.98;51910;1312;1018183;-79
2022/11/02 01:52:25;;;;;;;28.30;13.00;;;;;;;9.23;89.65;100712.70;52041;1286;1016479;-80
2022/11/02 01:55:01;;;;;;;35.40;14.50;;;;;;;9.22;89.65;100712.27;51914;1294;1015950;-80
2022/11/02 01:57:38;;;;;;;31.80;12.80;;;;;;;9.20;90.03;100712.25;51596;1309;1016319;-79
2022/11/02 02:00:16;;;;;;;28.70;12.20;;;;;;;9.18;90.01;100710.61;51646;1309;1015654;-78
2022/11/02 02:03:05;;;;;;;29.90;10.60;;;;;;;9.15;89.76;100709.66;52005;1302;1015927;-80
2022/11/02 02:05:42;;;;;;;27.10;12.70;;;;;;;9.14;89.82;100707.02;53175;1302;1015586;-79
2022/11/02 02:08:16;;;;;;;27.60;11.80;;;;;;;9.12;89.66;100702.48;53054;1309;1015936;-79
2022/11/02 02:10:58;;;;;;;27.40;11.90;;;;;;;9.08;89.54;100700.95;51967;1304;1016334;-79
2022/11/02 02:13:31;;;;;;;27.20;12.10;;;;;;;9.05;89.47;100699.57;51666;1315;1016236;-79
2022/11/02 02:16:15;;;;;;;26.30;11.20;;;;;;;9.03;89.50;100703.08;51732;1305;1016290;-79
2022/11/02 02:18:56;;;;;;;27.20;12.00;;;;;;;9.01;89.50;100704.19;51642;1303;1015614;-80
2022/11/02 02:21:43;;;;;;;26.20;10.30;;;;;;;9.00;89.52;100705.52;51699;1294;1018524;-79
2022/11/02 02:24:31;;;;;;;24.30;10.30;;;;;;;8.97;89.61;100705.49;51719;1309;1016004;-79
2022/11/02 02:27:20;;;;;;;25.90;11.50;;;;;;;8.96;89.40;100704.13;51697;1309;1016035;-79
2022/11/02 02:30:08;;;;;;;23.80;10.40;;;;;;;8.93;89.22;100705.36;51772;1309;1016592;-79
2022/11/02 02:32:49;;;;;;;21.80;9.50;;;;;;;8.89;89.45;100706.79;51707;1309;1016226;-80
2022/11/02 02:35:27;;;;;;;21.20;9.10;;;;;;;8.85;89.30;100709.16;51587;1309;1016309;-79
2022/11/02 02:38:01;;;;;;;28.00;11.40;;;;;;;8.81;89.41;100709.08;51581;1300;1019753;-78
2022/11/02 02:40:37;;;;;;;25.80;10.90;;;;;;;8.78;89.38;100712.79;51591;1312;1015719;-80
2022/11/02 02:43:13;;;;;;;25.90;10.00;;;;;;;8.74;89.22;100716.59;51522;1312;1016092;-79
2022/11/02 02:45:51;;;;;;;24.00;10.00;;;;;;;8.70;89.18;100719.42;51512;1312;1015733;-79
2022/11/02 02:48:26;;;;;;;23.70;9.30;;;;;;;8.66;88.84;100720.80;51380;1311;1016128;-79
2022/11/02 02:51:02;;;;;;;24.80;9.10;;;;;;;8.61;88.67;100718.75;51546;1311;1016085;-79
2022/11/02 02:53:39;;;;;;;23.30;9.90;;;;;;;8.57;88.97;100722.16;51556;1314;1017491;-79
2022/11/02 02:56:16;;;;;;;23.40;8.80;;;;;;;8.55;88.91;100724.06;51469;1302;1016637;-79
2022/11/02 02:59:01;;;;;;;27.50;10.20;;;;;;;8.55;89.00;100728.76;51618;1300;1016429;-79
2022/11/02 03:01:35;;;;;;;24.80;9.90;;;;;;;8.53;88.96;100728.20;51609;1312;1016256;-79
2022/11/02 03:04:10;;;;;;;22.40;9.40;;;;;;;8.52;89.05;100726.02;51675;1311;1016008;-79
2022/11/02 03:06:46;;;;;;;25.80;9.60;;;;;;;8.50;89.02;100726.47;51502;1311;1016082;-79
2022/11/02 03:09:30;;;;;;;22.90;9.00;;;;;;;8.49;89.12;100723.50;51577;1312;1016553;-79
2022/11/02 03:12:12;;;;;;;21.60;8.90;;;;;;;8.47;88.96;100723.88;51576;1311;1016531;-80
2022/11/02 03:15:01;;;;;;;22.00;8.20;;;;;;;8.48;89.18;100723.70;51539;1311;1016028;-79
2022/11/02 03:17:41;;;;;;;23.70;9.00;;;;;;;8.47;89.13;100725.09;51541;1311;1016010;-80
2022/11/02 03:20:27;;;;;;;22.80;9.40;;;;;;;8.46;89.27;100729.09;51859;1311;1016482;-79
2022/11/02 03:23:09;;;;;;;24.80;9.50;;;;;;;8.46;89.21;100730.67;51657;1311;1016520;-79
2022/11/02 03:25:49;;;;;;;22.80;9.40;;;;;;;8.47;89.22;100730.71;51882;1314;1016377;-79
2022/11/02 03:28:24;;;;;;;25.70;9.10;;;;;;;8.46;89.28;100724.46;51652;1311;1016436;-79
2022/11/02 03:31:00;;;;;;;23.50;9.10;;;;;;;8.42;89.14;100722.23;51573;1312;1016063;-79
2022/11/02 03:33:36;;;;;;;22.40;9.60;;;;;;;8.39;88.97;100723.95;51530;1310;1018761;-79
2022/11/02 03:36:13;;;;;;;23.60;9.40;;;;;;;8.36;89.21;100722.23;51693;1310;1016426;-79
2022/11/02 03:38:49;;;;;;;22.70;8.80;;;;;;;8.35;89.06;100725.36;51688;1310;1018867;-80
2022/11/02 03:41:23;;;;;;;24.00;9.50;;;;;;;8.31;88.97;100724.48;51636;1310;1015612;-79
2022/11/02 03:44:00;;;;;;;22.00;9.20;;;;;;;8.28;88.94;100727.59;51546;1310;1016267;-79
2022/11/02 03:46:34;;;;;;;25.00;10.00;;;;;;;8.27;88.79;100729.46;51667;1310;1016452;-79
2022/11/02 03:49:08;;;;;;;24.00;9.20;;;;;;;8.22;88.60;100733.21;51713;1311;1016352;-80
2022/11/02 03:51:44;;;;;;;22.60;9.50;;;;;;;8.16;88.68;100729.33;51962;1311;1016326;-79
2022/11/02 03:54:27;;;;;;;25.60;10.20;;;;;;;8.15;88.87;100731.45;51728;1310;1016082;-79
2022/11/02 03:57:03;;;;;;;23.70;8.50;;;;;;;8.13;88.81;100733.32;51668;1310;1016779;-80
2022/11/02 03:59:35;;;;;;;24.60;8.40;;;;;;;8.09;88.56;100732.70;51571;1310;1017294;-79
2022/11/02 04:02:10;;;;;;;23.80;9.80;;;;;;;8.02;88.48;100732.29;51584;1307;1016615;-79
2022/11/02 04:04:52;;;;;;;26.00;9.60;;;;;;;7.96;88.61;100737.04;51750;1310;1015773;-79
2022/11/02 04:08:19;;;;;;;20.10;8.10;;;;;;;7.90;88.52;100739.07;51772;1306;1015684;-79
2022/11/02 04:10:24;;;;;;;23.00;9.40;;;;;;;7.86;88.46;100742.22;51651;1309;1018469;-79
2022/11/02 04:15:45;;;;;;;24.50;9.40;;;;;;;7.81;88.55;100751.05;51725;1294;1016212;-79
2022/11/02 04:21:05;;;;;;;25.20;8.80;;;;;;;7.79;88.76;100753.42;51721;1310;1016385;-79
2022/11/02 04:26:25;;;;;;;23.50;8.50;;;;;;;7.75;88.84;100755.75;51583;1310;1016475;-79
2022/11/02 04:28:56;;;;;;;23.70;8.90;;;;;;;7.73;88.58;100750.52;51683;1311;1016548;-79
2022/11/02 04:31:28;;;;;;;23.60;8.60;;;;;;;7.70;88.68;100751.10;51529;1310;1016088;-79
2022/11/02 04:33:59;;;;;;;23.00;9.20;;;;;;;7.67;88.67;100747.85;51913;1310;1016682;-79
2022/11/02 04:36:32;;;;;;;19.90;8.00;;;;;;;7.64;88.53;100750.81;51700;1309;1016374;-79
2022/11/02 04:39:04;;;;;;;22.80;8.40;;;;;;;7.58;88.29;100755.69;51715;1310;1018615;-79
2022/11/02 04:41:42;;;;;;;20.80;7.90;;;;;;;7.54;88.46;100752.67;51626;1310;1016287;-80
2022/11/02 04:44:15;;;;;;;20.30;8.00;;;;;;;7.50;88.33;100754.52;51525;1310;1018436;-78
2022/11/02 04:46:47;;;;;;;24.60;8.10;;;;;;;7.49;88.49;100753.78;51582;1310;1016482;-78
2022/11/02 04:49:18;;;;;;;23.50;9.30;;;;;;;7.47;88.43;100751.79;51543;1310;1016247;-79
2022/11/02 04:51:49;;;;;;;24.50;9.00;;;;;;;7.43;88.29;100751.34;51666;1303;1016375;-79
2022/11/02 04:54:21;;;;;;;23.50;7.60;;;;;;;7.39;88.10;100751.02;51645;1308;1016367;-79
2022/11/02 04:56:52;;;;;;;27.40;9.40;;;;;;;7.34;88.37;100750.56;51618;1287;1016431;-79
2022/11/02 04:59:23;;;;;;;27.60;9.80;;;;;;;7.31;88.22;100749.27;51700;1310;1018365;-80
2022/11/02 05:01:54;;;;;;;30.90;11.30;;;;;;;7.27;88.38;100750.08;51655;1294;1016243;-79
2022/11/02 05:04:26;;;;;;;29.40;13.30;;;;;;;7.24;88.39;100753.18;51712;1310;1016214;-80
2022/11/02 05:06:57;;;;;;;29.20;12.20;;;;;;;7.19;88.31;100751.14;51668;1310;1015874;-80
2022/11/02 05:09:28;;;;;;;28.20;10.60;;;;;;;7.14;88.21;100751.38;51983;1310;1016567;-82
2022/11/02 05:12:03;;;;;;;25.60;9.60;;;;;;;7.11;88.19;100747.65;52044;1310;1016137;-79
2022/11/02 05:14:35;;;;;;;27.40;9.40;;;;;;;7.08;88.22;100746.34;51560;1309;1018010;-76
2022/11/02 05:17:06;;;;;;;24.80;8.80;;;;;;;7.05;88.24;100747.66;51561;1309;1015962;-77
2022/11/02 05:19:39;;;;;;;23.80;7.50;;;;;;;7.03;88.18;100750.30;51522;1309;1016028;-76
2022/11/02 05:22:11;;;;;;;23.30;8.00;;;;;;;6.99;88.10;100749.14;51624;1294;1019677;-77
2022/11/02 05:24:42;;;;;;;25.40;7.90;;;;;;;6.95;88.18;100748.70;51481;1303;1016391;-76
2022/11/02 05:27:13;;;;;;;29.00;9.50;;;;;;;6.93;88.21;100752.80;51453;1293;1015705;-76
2022/11/02 05:29:46;;;;;;;31.50;8.00;;;;;;;6.92;88.34;100753.52;51553;1309;1016544;-77
2022/11/02 05:32:17;;;;;;;26.70;8.60;;;;;;;6.92;88.45;100752.99;51478;1310;1016602;-77
2022/11/02 05:34:48;;;;;;;24.70;7.80;;;;;;;6.93;88.51;100758.30;51499;1309;1016464;-76
2022/11/02 05:37:19;;;;;;;23.40;8.00;;;;;;;6.90;88.33;100755.90;51449;1291;1015793;-77
2022/11/02 05:39:51;;;;;;;27.90;8.20;;;;;;;6.83;88.15;100759.35;51486;1294;1016631;-76
2022/11/02 05:42:24;;;;;;;24.50;8.30;;;;;;;6.78;88.24;100758.48;51438;1310;1018114;-77
2022/11/02 05:44:55;;;;;;;25.70;9.30;;;;;;;6.73;88.13;100760.30;51399;1310;1016682;-76
2022/11/02 05:47:27;;;;;;;24.00;10.20;;;;;;;6.69;88.19;100763.44;51517;1309;1015746;-76
2022/11/02 05:49:58;;;;;;;27.30;9.90;;;;;;;6.66;88.33;100764.63;51605;1309;1016911;-78
2022/11/02 05:52:30;;;;;;;27.10;8.60;;;;;;;6.66;88.29;100768.36;51440;1303;1017569;-76
2022/11/02 05:55:01;;;;;;;27.00;9.40;;;;;;;6.65;88.43;100770.19;51521;1310;1015921;-76
2022/11/02 05:57:33;;;;;;;27.20;9.80;;;;;;;6.65;88.43;100770.61;51528;1309;1016738;-76
2022/11/02 06:00:05;;;;;;;27.00;8.50;;;;;;;6.63;88.49;100771.83;51402;1309;1016515;-76
2022/11/02 06:02:36;;;;;;;27.70;8.80;;;;;;;6.64;88.53;100773.87;51520;1304;1016157;-77
2022/11/02 06:05:09;;;;;;;25.00;8.80;;;;;;;6.66;88.75;100772.80;51627;1309;1016753;-77
2022/11/02 06:07:41;;;;;;;27.40;9.30;;;;;;;6.67;88.71;100774.84;51508;1311;1016425;-77
2022/11/02 06:10:12;;;;;;;25.90;8.20;;;;;;;6.65;88.71;100777.41;51403;1310;1016441;-77
2022/11/02 06:12:44;;;;;;;34.70;12.30;;;;;;;6.65;88.79;100777.19;51632;1310;1016517;-78
2022/11/02 06:15:15;;;;;;;38.90;15.20;;;;;;;6.64;88.76;100779.36;51691;1310;1015604;-79
2022/11/02 06:17:47;;;;;;;29.40;12.30;;;;;;;6.62;88.87;100778.77;51404;1294;1016160;-77
2022/11/02 06:20:18;;;;;;;33.40;10.40;;;;;;;6.61;88.96;100786.48;51499;1309;1016210;-77
2022/11/02 06:22:49;;;;;;;28.80;11.40;;;;;;;6.59;89.13;100787.27;51516;1310;1016453;-77
2022/11/02 06:25:21;;;;;;;25.30;9.20;;;;;;;6.57;89.17;100785.80;51522;1310;1016179;-81
2022/11/02 06:28:07;;;;;;;23.90;9.40;;;;;;;6.54;89.19;100789.45;52007;1310;1016279;-82
2022/11/02 06:30:38;;;;;;;30.60;9.50;;;;;;;6.52;89.32;100791.88;52059;1310;1016081;-82
2022/11/02 06:33:10;;;;;;;25.30;9.30;;;;;;;6.50;89.23;100790.91;51830;1310;1016275;-82
2022/11/02 06:35:44;;;;;;;25.10;8.30;;;;;;;6.47;89.35;100792.09;51886;1310;1015851;-81
2022/11/02 06:38:16;;;;;;;27.70;8.80;;;;;;;6.47;89.35;100800.19;51896;1310;1016534;-82
2022/11/02 06:40:55;;;;;;;23.20;8.50;;;;;;;6.46;89.33;100801.94;51790;1309;1015899;-82
2022/11/02 06:43:27;;;;;;;24.60;8.20;;;;;;;6.46;89.52;100809.47;51835;1309;1018525;-82
2022/11/02 06:45:59;;;;;;;26.50;8.10;;;;;;;6.46;89.76;100811.54;51936;1308;1016919;-82
2022/11/02 06:48:31;;;;;;;25.40;8.20;;;;;;;6.48;89.79;100809.83;51835;1307;1016188;-82
2022/11/02 06:51:03;;;;;;;25.20;8.40;;;;;;;6.49;89.97;100812.50;51893;1310;1016530;-83
2022/11/02 06:53:34;;;;;;;18.80;7.10;;;;;;;6.49;90.12;100814.95;51875;1310;1016052;-82
2022/11/02 06:56:07;;;;;;;23.10;7.60;;;;;;;6.51;90.20;100817.90;51633;1310;1018140;-82
2022/11/02 06:58:38;;;;;;;27.70;8.40;;;;;;;6.55;90.54;100819.30;51707;1310;1016540;-81
2022/11/02 07:01:12;;;;;;;27.10;9.20;;;;;;;6.60;90.70;100821.86;51871;1309;1015785;-82
2022/11/02 07:03:45;;;;;;;27.10;9.60;;;;;;;6.66;91.24;100820.58;51826;1306;1016564;-81
2022/11/02 07:06:17;;;;;;;28.60;9.90;;;;;;;6.73;91.78;100814.84;51863;1310;1016443;-82
2022/11/02 07:08:48;;;;;;;29.60;10.50;;;;;;;6.82;92.39;100810.64;51644;1309;1016387;-82
2022/11/02 07:11:19;;;;;;;30.70;9.80;;;;;;;6.91;93.09;100810.84;51865;1310;1016577;-81
2022/11/02 07:13:50;;;;;;;28.40;10.70;;;;;;;7.01;93.64;100811.67;51555;1310;1015896;-82
2022/11/02 07:16:22;;;;;;;33.00;11.70;;;;;;;7.12;94.24;100816.73;51731;1311;1016493;-81
2022/11/02 07:18:53;;;;;;;28.30;10.70;;;;;;;7.21;94.20;100818.59;51709;1311;1016367;-82
2022/11/02 07:21:25;;;;;;;32.40;11.70;;;;;;;7.31;94.76;100820.98;51899;1310;1016298;-81
2022/11/02 07:23:57;;;;;;;34.70;11.50;;;;;;;7.43;95.17;100821.04;51633;1304;1016188;-82
2022/11/02 07:26:28;;;;;;;36.50;12.40;;;;;;;7.54;95.45;100820.69;51613;1307;1016016;-82
2022/11/02 07:29:00;;;;;;;37.90;11.80;;;;;;;7.64;95.47;100824.48;51763;1310;1016465;-81
2022/11/02 07:31:31;;;;;;;28.90;10.40;;;;;;;7.73;95.92;100827.22;51779;1310;1016307;-82
2022/11/02 07:34:03;;;;;;;33.30;13.30;;;;;;;7.85;96.38;100830.96;51666;1302;1016300;-82
2022/11/02 07:36:37;;;;;;;35.90;12.50;;;;;;;7.96;96.56;100829.48;51655;1302;1016035;-82
2022/11/02 07:39:08;;;;;;;31.40;13.00;;;;;;;8.06;96.62;100831.30;51738;1304;1016380;-81
2022/11/02 07:41:41;;;;;;;37.20;14.30;;;;;;;8.14;96.29;100828.66;51832;1310;1016390;-81
2022/11/02 07:44:13;;;;;;;31.80;12.30;;;;;;;8.24;96.64;100826.43;51882;1310;1016102;-81
2022/11/02 07:46:44;;;;;;;34.50;13.80;;;;;;;8.33;96.79;100824.39;51589;1310;1016102;-82
2022/11/02 07:49:16;;;;;;;36.60;14.10;;;;;;;8.41;96.87;100818.45;51836;1310;1015827;-81
2022/11/02 07:51:47;;;;;;;32.90;12.70;;;;;;;8.49;96.86;100814.60;51667;1311;1016379;-83
2022/11/02 07:54:20;;;;;;;31.80;12.50;;;;;;;8.57;96.81;100813.93;51867;1309;1016117;-82
2022/11/02 07:56:51;;;;;;;33.20;13.40;;;;;;;8.62;96.66;100813.97;51630;1310;1016106;-82
2022/11/02 07:59:23;;;;;;;32.80;13.80;;;;;;;8.68;96.78;100812.27;51850;1308;1016123;-82
2022/11/02 08:01:54;;;;;;;33.90;12.90;;;;;;;8.75;97.02;100817.48;51921;1310;1015680;-82
2022/11/02 08:04:25;;;;;;;29.80;13.30;;;;;;;8.83;97.09;100817.89;51694;1302;1016305;-82
2022/11/02 08:06:59;;;;;;;36.90;13.70;;;;;;;8.92;97.42;100818.61;51887;1310;1016309;-83
2022/11/02 08:09:30;;;;;;;32.40;12.80;;;;;;;9.01;97.61;100814.38;51844;1310;1016162;-82
2022/11/02 08:12:14;;;;;;;29.00;12.00;;;;;;;9.10;97.60;100809.02;51722;1310;1015807;-82
2022/11/02 08:14:46;;;;;;;31.90;14.50;;;;;;;9.20;97.67;100816.23;51882;1302;1015983;-82
2022/11/02 08:17:17;;;;;;;32.40;13.20;;;;;;;9.28;97.60;100808.00;51895;1307;1016035;-82
2022/11/02 08:19:49;;;;;;;35.30;13.40;;;;;;;9.37;97.42;100810.36;51885;1310;1017136;-82
2022/11/02 08:22:21;;;;;;;33.30;14.60;;;;;;;9.46;97.41;100807.38;51868;1307;1018494;-82
2022/11/02 08:24:53;;;;;;;31.40;12.60;;;;;;;9.57;97.52;100808.79;51855;1310;1016468;-82
2022/11/02 08:27:25;;;;;;;27.80;10.40;;;;;;;9.68;97.39;100811.83;51665;1310;1016251;-82
2022/11/02 08:29:56;;;;;;;35.20;12.60;;;;;;;9.78;97.34;100804.04;51643;1303;1016161;-82
2022/11/02 08:32:28;;;;;;;28.90;11.00;;;;;;;9.88;97.16;100807.98;51658;1310;1015739;-82
2022/11/02 08:35:00;;;;;;;27.10;10.40;;;;;;;9.99;97.32;100803.99;51867;1310;1016447;-83
2022/11/02 08:37:31;;;;;;;28.00;10.60;;;;;;;10.07;97.04;100805.72;51896;1310;1016094;-82
2022/11/02 08:40:03;;;;;;;24.10;10.10;;;;;;;10.15;97.08;100807.96;51635;1311;1016532;-82
2022/11/02 08:42:37;;;;;;;25.30;9.40;;;;;;;10.26;97.01;100810.27;51865;1309;1016266;-82
2022/11/02 08:45:10;;;;;;;22.60;9.00;;;;;;;10.36;96.97;100809.30;51772;1306;1016242;-82
2022/11/02 08:47:43;;;;;;;23.80;8.20;;;;;;;10.45;96.36;100808.80;51923;1306;1016400;-82
2022/11/02 08:50:15;;;;;;;27.50;8.30;;;;;;;10.57;96.17;100807.81;51699;1310;1016043;-82
2022/11/02 08:52:47;;;;;;;23.80;8.20;;;;;;;10.69;95.47;100808.87;51620;1309;1016520;-82
2022/11/02 08:55:19;;;;;;;19.20;6.70;;;;;;;10.81;95.48;100810.65;51641;1310;1016304;-81
2022/11/02 08:57:51;;;;;;;18.20;5.40;;;;;;;10.92;94.75;100806.90;51761;1308;1016489;-81
2022/11/02 09:00:25;;;;;;;14.90;4.50;;;;;;;11.03;93.91;100808.20;51600;1306;1016260;-82
2022/11/02 09:03:05;;;;;;;15.80;4.10;;;;;;;11.15;92.99;100807.25;51670;1310;1016523;-82
2022/11/02 09:05:39;;;;;;;16.00;4.00;;;;;;;11.26;92.35;100810.64;51683;1310;1015959;-81
2022/11/02 09:08:15;;;;;;;14.10;3.20;;;;;;;11.37;91.84;100812.22;51684;1296;1016345;-82
2022/11/02 09:10:51;;;;;;;12.60;2.90;;;;;;;11.47;90.66;100806.16;51667;1309;1015851;-82
2022/11/02 09:13:24;;;;;;;12.30;2.90;;;;;;;11.56;89.93;100809.66;51957;1309;1018956;-82
2022/11/02 09:15:57;;;;;;;9.60;1.90;;;;;;;11.62;88.66;100810.29;51801;1310;1016293;-82
2022/11/02 09:18:30;;;;;;;7.10;1.40;;;;;;;11.71;87.91;100810.31;51723;1294;1015611;-83
2022/11/02 09:21:05;;;;;;;9.30;1.70;;;;;;;11.79;87.19;100803.08;51741;1302;1016495;-82
2022/11/02 09:23:38;;;;;;;10.80;1.80;;;;;;;11.86;86.46;100800.20;51896;1310;1016212;-82
2022/11/02 09:26:10;;;;;;;10.20;1.70;;;;;;;11.94;85.95;100798.85;51906;1311;1016505;-83
2022/11/02 09:28:42;;;;;;;7.70;1.50;;;;;;;12.00;85.75;100796.61;51630;1287;1016538;-83
2022/11/02 09:31:13;;;;;;;7.90;1.30;;;;;;;12.08;85.47;100797.48;51724;1310;1016262;-83
2022/11/02 09:33:45;;;;;;;12.60;1.70;;;;;;;12.15;84.48;100799.69;51916;1302;1016101;-83
2022/11/02 09:36:16;;;;;;;8.70;1.30;;;;;;;12.23;83.99;100797.17;51804;1280;1016450;-83
2022/11/02 09:38:48;;;;;;;12.00;1.60;;;;;;;12.28;83.80;100796.48;51731;1310;1016475;-83
2022/11/02 09:41:30;;;;;;;11.10;1.60;;;;;;;12.35;83.44;100800.70;51678;1310;1015802;-83
2022/11/02 09:44:08;;;;;;;9.10;1.40;;;;;;;12.42;83.02;100802.63;51896;1310;1015948;-83
2022/11/02 09:46:41;;;;;;;11.20;2.00;;;;;;;12.49;82.46;100799.91;51724;1310;1016421;-83
2022/11/02 09:49:16;;;;;;;8.50;1.40;;;;;;;12.53;82.21;100802.86;51656;1311;1015902;-83
2022/11/02 09:51:51;;;;;;;10.20;1.20;;;;;;;12.57;82.51;100796.57;51920;1306;1016688;-83
2022/11/02 09:54:28;;;;;;;14.30;1.30;;;;;;;12.62;82.13;100797.21;51620;1311;1016295;-83
2022/11/02 09:57:03;;;;;;;9.80;1.30;;;;;;;12.70;81.59;100794.58;51719;1310;1015962;-83
2022/11/02 09:59:35;;;;;;;9.00;1.20;;;;;;;12.78;80.26;100794.67;51706;1310;1016036;-82
2022/11/02 10:02:16;;;;;;;9.00;1.20;;;;;;;12.87;80.26;100799.85;51753;1310;1016245;-83
2022/11/02 10:05:08;;;;;;;8.00;1.40;;;;;;;12.92;79.91;100798.05;51881;1280;1016161;-83
2022/11/02 10:08:01;;;;;;;9.10;1.40;;;;;;;13.00;79.46;100802.11;51981;1310;1016513;-83
2022/11/02 10:10:38;;;;;;;11.30;0.90;;;;;;;13.09;78.41;100798.12;51839;1310;1016161;-83
2022/11/02 10:13:23;;;;;;;10.60;1.40;;;;;;;13.13;78.17;100798.09;51958;1309;1016038;-82
2022/11/02 10:16:01;;;;;;;9.30;1.20;;;;;;;13.19;77.83;100796.10;51888;1310;1018697;-83
2022/11/02 10:18:34;;;;;;;8.80;1.50;;;;;;;13.23;77.50;100797.45;51998;1309;1016363;-82
2022/11/02 10:21:10;;;;;;;10.00;1.30;;;;;;;13.30;77.31;100798.55;51696;1311;1016535;-83
2022/11/02 10:23:47;;;;;;;8.30;1.10;;;;;;;13.38;77.36;100795.51;51713;1310;1015886;-83
2022/11/02 10:26:22;;;;;;;8.40;1.40;;;;;;;13.42;75.93;100795.17;51912;1310;1016308;-82
2022/11/02 10:29:00;;;;;;;10.70;1.10;;;;;;;13.46;74.75;100794.73;51705;1310;1016635;-82
2022/11/02 10:31:34;;;;;;;7.40;1.40;;;;;;;13.48;74.58;100801.23;51736;1294;1018113;-82
2022/11/02 10:34:19;;;;;;;8.90;1.40;;;;;;;13.53;74.03;100804.77;52265;1302;1016148;-82
2022/11/02 10:37:00;;;;;;;11.80;1.80;;;;;;;13.56;73.81;100800.71;52117;1310;1016470;-82
2022/11/02 10:39:40;;;;;;;10.10;1.60;;;;;;;13.63;73.66;100802.84;51997;1302;1016224;-82
2022/11/02 10:42:32;;;;;;;12.50;1.70;;;;;;;13.67;73.77;100797.15;51764;1309;1019767;-82
2022/11/02 10:45:23;;;;;;;5.20;1.20;;;;;;;13.70;73.19;100801.23;51956;1310;1016496;-82
2022/11/02 10:48:03;;;;;;;8.20;1.20;;;;;;;13.77;72.53;100801.07;51670;1310;1019662;-82
2022/11/02 10:50:46;;;;;;;8.70;1.00;;;;;;;13.80;72.05;100799.48;51650;1301;1016410;-83
2022/11/02 10:53:20;;;;;;;6.10;0.80;;;;;;;13.83;71.63;100800.20;51951;1287;1016565;-83
2022/11/02 10:55:59;;;;;;;8.10;0.80;;;;;;;13.86;71.43;100800.19;51955;1310;1016267;-82
2022/11/02 10:58:34;;;;;;;6.80;0.90;;;;;;;13.88;71.22;100804.08;51613;1310;1015792;-82
2022/11/02 11:01:09;;;;;;;10.40;1.10;;;;;;;13.91;71.16;100800.05;51906;1309;1016287;-82
2022/11/02 11:06:47;;;;;;;8.50;1.00;;;;;;;14.00;71.14;100793.39;99984;1344;545845;-61
2022/11/02 11:09:21;;;;;;;8.00;1.00;;;;;;;14.01;70.83;100798.77;102687;1290;22487;-61
2022/11/02 11:11:58;;;;;;;7.20;1.30;;;;;;;14.05;70.49;100795.70;102874;1284;22634;-63
2022/11/02 11:14:33;;;;;;;8.40;0.90;;;;;;;14.06;69.38;100795.11;102692;1314;22489;-63
2022/11/02 11:17:14;;;;;;;4.80;0.80;;;;;;;14.06;69.23;100794.59;102716;1315;24098;-62
2022/11/02 11:19:52;;;;;;;7.60;0.90;;;;;;;14.07;69.00;100796.09;102635;1307;176606;-63
2022/11/02 11:22:31;;;;;;;4.80;0.70;;;;;;;14.09;68.91;100792.23;102799;1312;25433;-62
2022/11/02 11:25:27;;;;;;;6.20;1.00;;;;;;;14.09;68.26;100788.71;102790;1291;26357;-63
2022/11/02 11:28:00;;;;;;;7.40;1.10;;;;;;;14.10;68.72;100784.08;102826;1298;22420;-62
2022/11/02 11:30:34;;;;;;;10.40;1.30;;;;;;;14.11;68.60;100780.63;102926;1313;24372;-62
2022/11/02 11:33:08;;;;;;;12.00;1.10;;;;;;;14.12;68.65;100777.44;102850;1291;22542;-63
2022/11/02 11:35:40;;;;;;;7.40;0.90;;;;;;;14.14;68.22;100775.25;103045;1303;22723;-63
2022/11/02 11:38:17;;;;;;;11.20;1.00;;;;;;;14.18;67.87;100774.95;103116;1290;22614;-62
2022/11/02 11:40:52;;;;;;;6.70;1.30;;;;;;;14.19;67.39;100771.50;103054;1310;24297;-63
2022/11/02 11:43:27;;;;;;;5.70;1.00;;;;;;;14.20;67.71;100765.44;103164;1310;22778;-64
2022/11/02 11:46:01;;;;;;;8.80;1.00;;;;;;;14.23;67.89;100761.19;103877;1289;25730;-63
2022/11/02 11:48:38;;;;;;;10.90;1.10;;;;;;;14.26;67.83;100760.29;103070;1310;25318;-63
2022/11/02 11:51:30;;;;;;;8.90;1.00;;;;;;;14.28;67.93;100758.14;103075;1288;22675;-61